sensor_id;sensor_type;location;lat;lon;timestamp;pressure;altitude;pressure_sealevel;temperature;humidity
75006;BME280;63553;51.814;4.600;2023-04-25T00:00:03;101280.91;;;15.31;58.41
75006;BME280;63553;51.814;4.600;2023-04-25T00:02:32;101281.38;;;15.33;58.37
75006;BME280;63553;51.814;4.600;2023-04-25T00:04:59;101294.53;;;15.33;58.57
75006;BME280;63553;51.814;4.600;2023-04-25T00:07:27;101291.28;;;15.31;58.45
75006;BME280;63553;51.814;4.600;2023-04-25T00:09:52;101294.06;;;15.31;58.34
75006;BME280;63553;51.814;4.600;2023-04-25T00:12:17;101295.38;;;15.33;58.54
75006;BME280;63553;51.814;4.600;2023-04-25T00:14:42;101302.47;;;15.31;58.56
75006;BME280;63553;51.814;4.600;2023-04-25T00:17:09;101290.44;;;15.30;58.39
75006;BME280;63553;51.814;4.600;2023-04-25T00:19:34;101298.84;;;15.30;58.33
75006;BME280;63553;51.814;4.600;2023-04-25T00:21:59;101292.09;;;15.31;58.18
75006;BME280;63553;51.814;4.600;2023-04-25T00:24:25;101300.50;;;15.31;58.60
75006;BME280;63553;51.814;4.600;2023-04-25T00:26:50;101300.84;;;15.30;58.30
75006;BME280;63553;51.814;4.600;2023-04-25T00:29:15;101309.59;;;15.28;58.20
75006;BME280;63553;51.814;4.600;2023-04-25T00:31:41;101315.19;;;15.28;58.39
75006;BME280;63553;51.814;4.600;2023-04-25T00:34:06;101310.41;;;15.29;58.48
75006;BME280;63553;51.814;4.600;2023-04-25T00:36:33;101306.78;;;15.28;58.36
75006;BME280;63553;51.814;4.600;2023-04-25T00:38:58;101313.56;;;15.27;58.24
75006;BME280;63553;51.814;4.600;2023-04-25T00:41:25;101314.38;;;15.28;58.37
75006;BME280;63553;51.814;4.600;2023-04-25T00:43:51;101305.50;;;15.26;58.44
75006;BME280;63553;51.814;4.600;2023-04-25T00:46:17;101301.06;;;15.25;58.26
75006;BME280;63553;51.814;4.600;2023-04-25T00:48:42;101308.78;;;15.28;58.51
75006;BME280;63553;51.814;4.600;2023-04-25T00:51:09;101307.13;;;15.27;58.38
75006;BME280;63553;51.814;4.600;2023-04-25T00:53:37;101314.38;;;15.28;58.43
75006;BME280;63553;51.814;4.600;2023-04-25T00:56:02;101313.56;;;15.27;58.76
75006;BME280;63553;51.814;4.600;2023-04-25T00:58:29;101307.63;;;15.29;58.61
75006;BME280;63553;51.814;4.600;2023-04-25T01:00:55;101319.16;;;15.27;58.58
75006;BME280;63553;51.814;4.600;2023-04-25T01:03:21;101317.84;;;15.25;58.56
75006;BME280;63553;51.814;4.600;2023-04-25T01:05:47;101315.41;;;15.23;58.68
75006;BME280;63553;51.814;4.600;2023-04-25T01:08:13;101322.31;;;15.26;58.84
75006;BME280;63553;51.814;4.600;2023-04-25T01:10:39;101318.69;;;15.25;58.76
75006;BME280;63553;51.814;4.600;2023-04-25T01:13:05;101318.22;;;15.23;58.88
75006;BME280;63553;51.814;4.600;2023-04-25T01:15:30;101326.63;;;15.23;58.98
75006;BME280;63553;51.814;4.600;2023-04-25T01:17:57;101318.06;;;15.20;58.84
75006;BME280;63553;51.814;4.600;2023-04-25T01:20:24;101322.16;;;15.22;59.01
75006;BME280;63553;51.814;4.600;2023-04-25T01:22:50;101325.78;;;15.23;58.81
75006;BME280;63553;51.814;4.600;2023-04-25T01:25:16;101326.47;;;15.20;58.88
75006;BME280;63553;51.814;4.600;2023-04-25T01:27:42;101328.44;;;15.19;59.00
75006;BME280;63553;51.814;4.600;2023-04-25T01:30:08;101330.09;;;15.20;59.05
75006;BME280;63553;51.814;4.600;2023-04-25T01:32:33;101326.94;;;15.22;58.99
75006;BME280;63553;51.814;4.600;2023-04-25T01:35:04;101330.44;;;15.19;59.14
75006;BME280;63553;51.814;4.600;2023-04-25T01:37:43;101330.44;;;15.19;59.05
75006;BME280;63553;51.814;4.600;2023-04-25T01:40:10;101338.00;;;15.18;59.25
75006;BME280;63553;51.814;4.600;2023-04-25T01:42:37;101334.38;;;15.18;59.33
75006;BME280;63553;51.814;4.600;2023-04-25T01:45:03;101338.84;;;15.19;59.18
75006;BME280;63553;51.814;4.600;2023-04-25T01:47:29;101338.84;;;15.19;59.18
75006;BME280;63553;51.814;4.600;2023-04-25T01:49:54;101340.47;;;15.20;59.41
75006;BME280;63553;51.814;4.600;2023-04-25T01:52:20;101338.84;;;15.19;59.27
75006;BME280;63553;51.814;4.600;2023-04-25T01:54:45;101334.38;;;15.18;59.18
75006;BME280;63553;51.814;4.600;2023-04-25T01:57:12;101345.25;;;15.19;59.07
75006;BME280;63553;51.814;4.600;2023-04-25T01:59:37;101348.06;;;15.19;59.16
75006;BME280;63553;51.814;4.600;2023-04-25T02:02:03;101341.63;;;15.19;59.17
75006;BME280;63553;51.814;4.600;2023-04-25T02:04:29;101348.88;;;15.20;59.13
75006;BME280;63553;51.814;4.600;2023-04-25T02:06:54;101347.25;;;15.19;59.33
75006;BME280;63553;51.814;4.600;2023-04-25T02:09:20;101345.25;;;15.19;59.12
75006;BME280;63553;51.814;4.600;2023-04-25T02:11:45;101340.47;;;15.20;59.07
75006;BME280;63553;51.814;4.600;2023-04-25T02:14:10;101352.84;;;15.19;59.24
75006;BME280;63553;51.814;4.600;2023-04-25T02:16:36;101344.44;;;15.19;59.16
75006;BME280;63553;51.814;4.600;2023-04-25T02:19:01;101340.47;;;15.20;59.25
75006;BME280;63553;51.814;4.600;2023-04-25T02:21:27;101343.28;;;15.20;59.21
75006;BME280;63553;51.814;4.600;2023-04-25T02:23:52;101340.81;;;15.18;59.07
75006;BME280;63553;51.814;4.600;2023-04-25T02:26:17;101341.31;;;15.20;59.17
75006;BME280;63553;51.814;4.600;2023-04-25T02:28:43;101349.72;;;15.20;59.24
75006;BME280;63553;51.814;4.600;2023-04-25T02:31:08;101355.31;;;15.20;59.01
75006;BME280;63553;51.814;4.600;2023-04-25T02:33:33;101350.03;;;15.19;59.35
75006;BME280;63553;51.814;4.600;2023-04-25T02:35:59;101354.50;;;15.20;59.21
75006;BME280;63553;51.814;4.600;2023-04-25T02:38:24;101355.63;;;15.19;59.09
75006;BME280;63553;51.814;4.600;2023-04-25T02:40:50;101354.50;;;15.20;59.12
75006;BME280;63553;51.814;4.600;2023-04-25T02:43:15;101348.38;;;15.18;59.19
75006;BME280;63553;51.814;4.600;2023-04-25T02:45:41;101356.09;;;15.21;58.87
75006;BME280;63553;51.814;4.600;2023-04-25T02:48:06;101345.25;;;15.19;58.79
75006;BME280;63553;51.814;4.600;2023-04-25T02:50:31;101359.28;;;15.19;59.06
75006;BME280;63553;51.814;4.600;2023-04-25T02:52:57;101364.50;;;15.21;59.00
75006;BME280;63553;51.814;4.600;2023-04-25T02:55:22;101360.91;;;15.20;59.03
75006;BME280;63553;51.814;4.600;2023-04-25T02:57:48;101354.00;;;15.18;58.83
75006;BME280;63553;51.814;4.600;2023-04-25T03:00:13;101363.56;;;15.17;58.91
75006;BME280;63553;51.814;4.600;2023-04-25T03:02:39;101360.41;;;15.18;59.00
75006;BME280;63553;51.814;4.600;2023-04-25T03:05:04;101377.22;;;15.18;58.88
75006;BME280;63553;51.814;4.600;2023-04-25T03:07:31;101371.16;;;15.16;58.75
75006;BME280;63553;51.814;4.600;2023-04-25T03:09:56;101380.72;;;15.15;58.53
75006;BME280;63553;51.814;4.600;2023-04-25T03:12:21;101370.19;;;15.12;58.22
75006;BME280;63553;51.814;4.600;2023-04-25T03:14:47;101379.41;;;15.13;58.15
75006;BME280;63553;51.814;4.600;2023-04-25T03:17:12;101358.50;;;15.10;57.87
75006;BME280;63553;51.814;4.600;2023-04-25T03:19:37;101364.25;;;15.14;57.66
75006;BME280;63553;51.814;4.600;2023-04-25T03:22:03;101356.03;;;15.09;57.80
75006;BME280;63553;51.814;4.600;2023-04-25T03:24:28;101358.50;;;15.10;57.69
75006;BME280;63553;51.814;4.600;2023-04-25T03:26:53;101365.75;;;15.11;57.66
75006;BME280;63553;51.814;4.600;2023-04-25T03:29:19;101367.38;;;15.12;57.48
75006;BME280;63553;51.814;4.600;2023-04-25T03:31:44;101365.41;;;15.13;57.89
75006;BME280;63553;51.814;4.600;2023-04-25T03:34:10;101363.75;;;15.12;57.64
75006;BME280;63553;51.814;4.600;2023-04-25T03:36:35;101371.38;;;15.11;58.05
75006;BME280;63553;51.814;4.600;2023-04-25T03:39:01;101370.19;;;15.12;57.94
75006;BME280;63553;51.814;4.600;2023-04-25T03:41:26;101364.94;;;15.11;58.06
75006;BME280;63553;51.814;4.600;2023-04-25T03:43:52;101366.56;;;15.12;58.21
75006;BME280;63553;51.814;4.600;2023-04-25T03:46:18;101372.97;;;15.12;58.25
75006;BME280;63553;51.814;4.600;2023-04-25T03:48:43;101373.81;;;15.13;58.07
75006;BME280;63553;51.814;4.600;2023-04-25T03:51:08;101376.59;;;15.13;58.22
75006;BME280;63553;51.814;4.600;2023-04-25T03:53:34;101375.31;;;15.10;58.35
75006;BME280;63553;51.814;4.600;2023-04-25T03:55:59;101376.97;;;15.11;58.10
75006;BME280;63553;51.814;4.600;2023-04-25T03:58:24;101373.34;;;15.11;58.63
75006;BME280;63553;51.814;4.600;2023-04-25T04:00:50;101380.56;;;15.12;58.37
75006;BME280;63553;51.814;4.600;2023-04-25T04:03:15;101384.19;;;15.12;58.42
75006;BME280;63553;51.814;4.600;2023-04-25T04:05:40;101384.34;;;15.16;58.46
75006;BME280;63553;51.814;4.600;2023-04-25T04:08:06;101387.91;;;15.25;59.90
75006;BME280;63553;51.814;4.600;2023-04-25T04:10:31;101380.56;;;15.32;61.20
75006;BME280;63553;51.814;4.600;2023-04-25T04:12:56;101386.25;;;15.44;62.93
75006;BME280;63553;51.814;4.600;2023-04-25T04:15:22;101382.66;;;15.44;62.67
75006;BME280;63553;51.814;4.600;2023-04-25T04:17:48;101388.25;;;15.44;62.21
75006;BME280;63553;51.814;4.600;2023-04-25T04:20:13;101392.53;;;15.41;62.38
75006;BME280;63553;51.814;4.600;2023-04-25T04:22:39;101394.06;;;15.39;62.37
75006;BME280;63553;51.814;4.600;2023-04-25T04:25:04;101393.88;;;15.44;62.22
75006;BME280;63553;51.814;4.600;2023-04-25T04:27:32;101400.75;;;15.46;62.28
75006;BME280;63553;51.814;4.600;2023-04-25T04:29:57;101399.47;;;15.44;61.37
75006;BME280;63553;51.814;4.600;2023-04-25T04:32:23;101396.03;;;15.47;60.10
75006;BME280;63553;51.814;4.600;2023-04-25T04:34:49;101401.09;;;15.45;61.24
75006;BME280;63553;51.814;4.600;2023-04-25T04:37:14;101403.44;;;15.43;62.00
75006;BME280;63553;51.814;4.600;2023-04-25T04:39:40;101410.19;;;15.42;61.07
75006;BME280;63553;51.814;4.600;2023-04-25T04:42:05;101410.88;;;15.39;61.00
75006;BME280;63553;51.814;4.600;2023-04-25T04:44:31;101414.03;;;15.37;61.64
75006;BME280;63553;51.814;4.600;2023-04-25T04:47:00;101412.22;;;15.33;61.70
75006;BME280;63553;51.814;4.600;2023-04-25T04:49:26;101412.44;;;15.28;61.42
75006;BME280;63553;51.814;4.600;2023-04-25T04:51:51;101425.47;;;15.24;61.58
75006;BME280;63553;51.814;4.600;2023-04-25T04:54:17;101409.53;;;15.16;61.55
75006;BME280;63553;51.814;4.600;2023-04-25T04:56:42;101420.75;;;15.16;61.33
75006;BME280;63553;51.814;4.600;2023-04-25T04:59:08;101425.88;;;15.14;61.28
75006;BME280;63553;51.814;4.600;2023-04-25T05:01:34;101433.44;;;15.13;61.46
75006;BME280;63553;51.814;4.600;2023-04-25T05:04:01;101430.97;;;15.12;61.45
75006;BME280;63553;51.814;4.600;2023-04-25T05:06:28;101426.06;;;15.09;61.29
75006;BME280;63553;51.814;4.600;2023-04-25T05:08:56;101434.13;;;15.10;61.64
75006;BME280;63553;51.814;4.600;2023-04-25T05:11:23;101436.94;;;15.10;61.35
75006;BME280;63553;51.814;4.600;2023-04-25T05:13:50;101432.31;;;15.06;61.31
75006;BME280;63553;51.814;4.600;2023-04-25T05:16:16;101435.63;;;15.08;61.36
75006;BME280;63553;51.814;4.600;2023-04-25T05:18:41;101443.22;;;15.07;61.16
75006;BME280;63553;51.814;4.600;2023-04-25T05:21:07;101448.47;;;15.09;61.31
75006;BME280;63553;51.814;4.600;2023-04-25T05:23:32;101458.88;;;15.08;61.27
75006;BME280;63553;51.814;4.600;2023-04-25T05:25:58;101455.25;;;15.08;61.20
75006;BME280;63553;51.814;4.600;2023-04-25T05:28:23;101457.38;;;15.11;61.08
75006;BME280;63553;51.814;4.600;2023-04-25T05:30:49;101457.84;;;15.13;60.97
75006;BME280;63553;51.814;4.600;2023-04-25T05:33:14;101471.84;;;15.13;61.02
75006;BME280;63553;51.814;4.600;2023-04-25T05:35:40;101467.75;;;15.10;60.89
75006;BME280;63553;51.814;4.600;2023-04-25T05:38:05;101485.03;;;15.12;60.98
75006;BME280;63553;51.814;4.600;2023-04-25T05:40:31;101484.53;;;15.10;60.75
75006;BME280;63553;51.814;4.600;2023-04-25T05:42:57;101486.53;;;15.10;60.85
75006;BME280;63553;51.814;4.600;2023-04-25T05:45:22;101493.16;;;15.05;61.02
75006;BME280;63553;51.814;4.600;2023-04-25T05:47:48;101484.38;;;15.07;59.78
75006;BME280;63553;51.814;4.600;2023-04-25T05:50:13;101491.13;;;15.06;59.51
75006;BME280;63553;51.814;4.600;2023-04-25T05:52:38;101490.16;;;15.10;60.03
75006;BME280;63553;51.814;4.600;2023-04-25T05:55:04;101496.56;;;15.11;60.08
75006;BME280;63553;51.814;4.600;2023-04-25T05:57:30;101500.97;;;15.20;59.89
75006;BME280;63553;51.814;4.600;2023-04-25T05:59:56;101499.34;;;15.48;59.39
75006;BME280;63553;51.814;4.600;2023-04-25T06:02:22;101498.31;;;16.03;59.00
75006;BME280;63553;51.814;4.600;2023-04-25T06:04:50;101497.31;;;16.52;58.32
75006;BME280;63553;51.814;4.600;2023-04-25T06:07:16;101497.78;;;16.99;56.12
75006;BME280;63553;51.814;4.600;2023-04-25T06:09:43;101493.22;;;17.43;55.05
75006;BME280;63553;51.814;4.600;2023-04-25T06:12:08;101506.78;;;17.90;53.75
75006;BME280;63553;51.814;4.600;2023-04-25T06:14:33;101508.97;;;18.36;51.90
75006;BME280;63553;51.814;4.600;2023-04-25T06:16:59;101511.41;;;17.09;58.39
75006;BME280;63553;51.814;4.600;2023-04-25T06:19:31;101523.13;;;17.36;55.98
75006;BME280;63553;51.814;4.600;2023-04-25T06:21:57;101516.53;;;17.80;52.82
75006;BME280;63553;51.814;4.600;2023-04-25T06:24:22;101518.47;;;18.04;51.33
75006;BME280;63553;51.814;4.600;2023-04-25T06:26:47;101523.41;;;17.95;51.44
75006;BME280;63553;51.814;4.600;2023-04-25T06:29:12;101529.66;;;17.15;61.53
75006;BME280;63553;51.814;4.600;2023-04-25T06:31:38;101526.38;;;17.26;59.17
75006;BME280;63553;51.814;4.600;2023-04-25T06:34:03;101525.66;;;17.16;52.74
75006;BME280;63553;51.814;4.600;2023-04-25T06:36:28;101531.69;;;16.70;48.20
75006;BME280;63553;51.814;4.600;2023-04-25T06:38:54;101540.31;;;17.83;47.38
75006;BME280;63553;51.814;4.600;2023-04-25T06:41:20;101539.19;;;17.59;48.23
75006;BME280;63553;51.814;4.600;2023-04-25T06:43:45;101547.16;;;18.77;48.94
75006;BME280;63553;51.814;4.600;2023-04-25T06:46:11;101549.03;;;19.63;46.46
75006;BME280;63553;51.814;4.600;2023-04-25T06:48:36;101562.84;;;18.90;46.79
75006;BME280;63553;51.814;4.600;2023-04-25T06:51:02;101560.94;;;17.99;46.78
75006;BME280;63553;51.814;4.600;2023-04-25T06:53:27;101560.88;;;15.95;47.61
75006;BME280;63553;51.814;4.600;2023-04-25T06:55:53;101570.66;;;17.29;47.28
75006;BME280;63553;51.814;4.600;2023-04-25T06:58:18;101569.72;;;16.47;47.69
75006;BME280;63553;51.814;4.600;2023-04-25T07:00:43;101577.94;;;14.33;44.29
75006;BME280;63553;51.814;4.600;2023-04-25T07:03:09;101569.66;;;14.03;43.57
75006;BME280;63553;51.814;4.600;2023-04-25T07:05:34;101577.94;;;13.51;45.44
75006;BME280;63553;51.814;4.600;2023-04-25T07:08:00;101575.31;;;15.85;50.53
75006;BME280;63553;51.814;4.600;2023-04-25T07:10:25;101585.97;;;14.09;44.85
75006;BME280;63553;51.814;4.600;2023-04-25T07:12:50;101593.84;;;14.93;50.35
75006;BME280;63553;51.814;4.600;2023-04-25T07:15:16;101596.53;;;15.65;48.87
75006;BME280;63553;51.814;4.600;2023-04-25T07:17:41;101589.06;;;14.93;46.99
75006;BME280;63553;51.814;4.600;2023-04-25T07:20:07;101593.31;;;13.01;48.65
75006;BME280;63553;51.814;4.600;2023-04-25T07:22:34;101592.44;;;13.14;50.74
75006;BME280;63553;51.814;4.600;2023-04-25T07:25:01;101594.50;;;12.55;50.37
75006;BME280;63553;51.814;4.600;2023-04-25T07:27:26;101586.59;;;11.50;51.03
75006;BME280;63553;51.814;4.600;2023-04-25T07:29:52;101600.53;;;13.72;50.46
75006;BME280;63553;51.814;4.600;2023-04-25T07:32:17;101597.91;;;12.74;48.10
75006;BME280;63553;51.814;4.600;2023-04-25T07:34:42;101598.91;;;13.71;47.17
75006;BME280;63553;51.814;4.600;2023-04-25T07:37:08;101600.44;;;14.80;49.51
75006;BME280;63553;51.814;4.600;2023-04-25T07:39:33;101606.13;;;15.64;44.74
75006;BME280;63553;51.814;4.600;2023-04-25T07:41:58;101597.09;;;16.29;48.43
75006;BME280;63553;51.814;4.600;2023-04-25T07:44:24;101600.84;;;17.19;47.78
75006;BME280;63553;51.814;4.600;2023-04-25T07:46:50;101608.09;;;15.64;41.82
75006;BME280;63553;51.814;4.600;2023-04-25T07:49:16;101604.41;;;16.01;45.67
75006;BME280;63553;51.814;4.600;2023-04-25T07:51:41;101607.03;;;16.47;44.84
75006;BME280;63553;51.814;4.600;2023-04-25T07:54:09;101601.38;;;18.58;45.25
75006;BME280;63553;51.814;4.600;2023-04-25T07:56:34;101612.03;;;19.52;42.95
75006;BME280;63553;51.814;4.600;2023-04-25T07:59:00;101604.41;;;20.37;41.25
75006;BME280;63553;51.814;4.600;2023-04-25T08:01:25;101604.03;;;20.96;40.04
75006;BME280;63553;51.814;4.600;2023-04-25T08:03:52;101596.31;;;21.35;39.22
75006;BME280;63553;51.814;4.600;2023-04-25T08:06:17;101600.47;;;21.19;38.95
75006;BME280;63553;51.814;4.600;2023-04-25T08:08:43;101607.91;;;21.49;38.21
75006;BME280;63553;51.814;4.600;2023-04-25T08:11:08;101608.69;;;21.50;37.79
75006;BME280;63553;51.814;4.600;2023-04-25T08:13:33;101614.91;;;21.14;37.01
75006;BME280;63553;51.814;4.600;2023-04-25T08:15:59;101625.41;;;20.21;35.02
75006;BME280;63553;51.814;4.600;2023-04-25T08:18:24;101627.31;;;21.28;35.97
75006;BME280;63553;51.814;4.600;2023-04-25T08:20:49;101620.63;;;20.40;32.25
75006;BME280;63553;51.814;4.600;2023-04-25T08:23:15;101625.03;;;20.22;37.66
75006;BME280;63553;51.814;4.600;2023-04-25T08:25:40;101627.13;;;19.75;37.43
75006;BME280;63553;51.814;4.600;2023-04-25T08:28:06;101626.00;;;20.65;37.53
75006;BME280;63553;51.814;4.600;2023-04-25T08:30:31;101630.41;;;21.42;37.41
75006;BME280;63553;51.814;4.600;2023-04-25T08:32:56;101633.22;;;21.65;35.06
75006;BME280;63553;51.814;4.600;2023-04-25T08:35:22;101642.09;;;21.64;35.85
75006;BME280;63553;51.814;4.600;2023-04-25T08:37:48;101641.94;;;21.11;37.57
75006;BME280;63553;51.814;4.600;2023-04-25T08:40:15;101645.34;;;20.63;38.44
75006;BME280;63553;51.814;4.600;2023-04-25T08:42:43;101651.25;;;19.57;34.67
75006;BME280;63553;51.814;4.600;2023-04-25T08:45:10;101668.28;;;18.89;40.65
75006;BME280;63553;51.814;4.600;2023-04-25T08:47:37;101679.56;;;16.16;40.38
75006;BME280;63553;51.814;4.600;2023-04-25T08:50:04;101679.44;;;16.62;39.74
75006;BME280;63553;51.814;4.600;2023-04-25T08:52:36;101690.44;;;16.67;44.12
75006;BME280;63553;51.814;4.600;2023-04-25T08:55:02;101691.34;;;15.72;43.85
75006;BME280;63553;51.814;4.600;2023-04-25T08:57:31;101691.41;;;14.09;44.35
75006;BME280;63553;51.814;4.600;2023-04-25T08:59:57;101705.16;;;15.22;48.07
75006;BME280;63553;51.814;4.600;2023-04-25T09:02:24;101701.53;;;16.85;46.73
75006;BME280;63553;51.814;4.600;2023-04-25T09:04:50;101706.88;;;16.28;45.88
75006;BME280;63553;51.814;4.600;2023-04-25T09:07:15;101715.44;;;16.81;45.95
75006;BME280;63553;51.814;4.600;2023-04-25T09:09:43;101711.91;;;17.05;44.76
75006;BME280;63553;51.814;4.600;2023-04-25T09:12:09;101729.06;;;15.83;47.06
75006;BME280;63553;51.814;4.600;2023-04-25T09:14:35;101715.19;;;16.74;45.52
75006;BME280;63553;51.814;4.600;2023-04-25T09:17:02;101728.44;;;16.15;43.68
75006;BME280;63553;51.814;4.600;2023-04-25T09:19:34;101722.16;;;16.18;45.72
75006;BME280;63553;51.814;4.600;2023-04-25T09:22:10;101724.50;;;16.37;46.26
75006;BME280;63553;51.814;4.600;2023-04-25T09:24:43;101719.66;;;17.73;44.25
75006;BME280;63553;51.814;4.600;2023-04-25T09:27:12;101725.66;;;17.72;44.13
75006;BME280;63553;51.814;4.600;2023-04-25T09:29:42;101725.69;;;18.08;43.32
75006;BME280;63553;51.814;4.600;2023-04-25T09:32:11;101734.03;;;16.44;39.21
75006;BME280;63553;51.814;4.600;2023-04-25T09:34:46;101725.19;;;17.16;44.67
75006;BME280;63553;51.814;4.600;2023-04-25T09:37:20;101729.03;;;17.33;43.14
75006;BME280;63553;51.814;4.600;2023-04-25T09:39:52;101740.78;;;17.14;44.86
75006;BME280;63553;51.814;4.600;2023-04-25T09:42:17;101739.91;;;17.55;43.98
75006;BME280;63553;51.814;4.600;2023-04-25T09:44:45;101730.19;;;17.64;40.45
75006;BME280;63553;51.814;4.600;2023-04-25T09:47:16;101726.25;;;19.02;40.46
75006;BME280;63553;51.814;4.600;2023-04-25T09:49:43;101729.41;;;18.12;41.82
75006;BME280;63553;51.814;4.600;2023-04-25T09:52:13;101737.72;;;19.37;39.96
75006;BME280;63553;51.814;4.600;2023-04-25T09:54:39;101741.13;;;19.86;39.15
75006;BME280;63553;51.814;4.600;2023-04-25T09:57:11;101747.75;;;20.09;37.16
75006;BME280;63553;51.814;4.600;2023-04-25T09:59:39;101745.84;;;20.79;37.15
75006;BME280;63553;51.814;4.600;2023-04-25T10:02:07;101741.25;;;20.90;36.82
75006;BME280;63553;51.814;4.600;2023-04-25T10:04:35;101744.41;;;20.70;37.48
75006;BME280;63553;51.814;4.600;2023-04-25T10:07:03;101757.47;;;19.37;37.66
75006;BME280;63553;51.814;4.600;2023-04-25T10:09:31;101762.16;;;19.45;38.47
75006;BME280;63553;51.814;4.600;2023-04-25T10:11:59;101768.16;;;18.64;38.43
75006;BME280;63553;51.814;4.600;2023-04-25T10:14:25;101759.19;;;19.69;38.30
75006;BME280;63553;51.814;4.600;2023-04-25T10:16:51;101762.97;;;19.89;38.50
75006;BME280;63553;51.814;4.600;2023-04-25T10:19:19;101767.22;;;19.98;38.02
75006;BME280;63553;51.814;4.600;2023-04-25T10:21:54;101757.41;;;18.94;35.93
75006;BME280;63553;51.814;4.600;2023-04-25T10:24:20;101766.13;;;18.76;39.80
75006;BME280;63553;51.814;4.600;2023-04-25T10:26:47;101771.94;;;17.74;35.39
75006;BME280;63553;51.814;4.600;2023-04-25T10:29:21;101774.72;;;18.44;39.98
75006;BME280;63553;51.814;4.600;2023-04-25T10:31:47;101767.78;;;18.17;39.85
75006;BME280;63553;51.814;4.600;2023-04-25T10:34:13;101778.03;;;17.23;38.52
75006;BME280;63553;51.814;4.600;2023-04-25T10:36:38;101780.84;;;15.94;41.27
75006;BME280;63553;51.814;4.600;2023-04-25T10:39:05;101778.19;;;17.27;42.54
75006;BME280;63553;51.814;4.600;2023-04-25T10:41:45;101769.97;;;17.21;42.51
75006;BME280;63553;51.814;4.600;2023-04-25T10:44:11;101771.22;;;16.91;38.24
75006;BME280;63553;51.814;4.600;2023-04-25T10:46:36;101773.75;;;16.84;40.04
75006;BME280;63553;51.814;4.600;2023-04-25T10:49:02;101775.31;;;17.14;43.52
75006;BME280;63553;51.814;4.600;2023-04-25T10:51:32;101778.31;;;17.30;42.76
75006;BME280;63553;51.814;4.600;2023-04-25T10:54:06;101775.75;;;17.04;43.14
75006;BME280;63553;51.814;4.600;2023-04-25T10:56:37;101794.03;;;14.39;40.96
75006;BME280;63553;51.814;4.600;2023-04-25T10:59:08;101792.66;;;15.27;47.91
75006;BME280;63553;51.814;4.600;2023-04-25T11:01:45;101785.75;;;15.08;41.73
75006;BME280;63553;51.814;4.600;2023-04-25T11:04:32;101788.50;;;15.42;43.24
75006;BME280;63553;51.814;4.600;2023-04-25T11:07:23;101786.00;;;16.21;42.68
75006;BME280;63553;51.814;4.600;2023-04-25T11:09:51;101787.22;;;15.14;40.19
75006;BME280;63553;51.814;4.600;2023-04-25T11:12:17;101789.50;;;15.54;47.09
75006;BME280;63553;51.814;4.600;2023-04-25T11:14:42;101802.50;;;16.52;45.41
75006;BME280;63553;51.814;4.600;2023-04-25T11:17:08;101792.06;;;16.32;45.78
75006;BME280;63553;51.814;4.600;2023-04-25T11:19:34;101798.31;;;16.66;44.73
75006;BME280;63553;51.814;4.600;2023-04-25T11:22:01;101795.47;;;16.08;45.19
75006;BME280;63553;51.814;4.600;2023-04-25T11:24:31;101797.72;;;16.52;44.12
75006;BME280;63553;51.814;4.600;2023-04-25T11:27:00;101806.81;;;15.56;42.48
75006;BME280;63553;51.814;4.600;2023-04-25T11:29:28;101802.81;;;14.63;40.74
75006;BME280;63553;51.814;4.600;2023-04-25T11:31:54;101805.38;;;14.34;42.86
75006;BME280;63553;51.814;4.600;2023-04-25T11:34:22;101803.50;;;15.46;44.85
75006;BME280;63553;51.814;4.600;2023-04-25T11:36:48;101801.03;;;15.36;42.38
75006;BME280;63553;51.814;4.600;2023-04-25T11:39:13;101809.47;;;15.62;45.54
75006;BME280;63553;51.814;4.600;2023-04-25T11:41:41;101809.31;;;16.51;45.27
75006;BME280;63553;51.814;4.600;2023-04-25T11:44:06;101809.94;;;16.86;44.49
75006;BME280;63553;51.814;4.600;2023-04-25T11:46:35;101806.97;;;16.53;44.99
75006;BME280;63553;51.814;4.600;2023-04-25T11:49:01;101801.06;;;16.96;44.46
75006;BME280;63553;51.814;4.600;2023-04-25T11:51:26;101808.88;;;16.90;43.30
75006;BME280;63553;51.814;4.600;2023-04-25T11:53:52;101820.81;;;15.74;41.60
75006;BME280;63553;51.814;4.600;2023-04-25T11:56:17;101828.22;;;16.92;44.01
75006;BME280;63553;51.814;4.600;2023-04-25T11:59:03;101825.63;;;17.07;43.64
75006;BME280;63553;51.814;4.600;2023-04-25T12:01:30;101822.78;;;16.87;43.85
75006;BME280;63553;51.814;4.600;2023-04-25T12:03:56;101835.09;;;17.03;43.51
75006;BME280;63553;51.814;4.600;2023-04-25T12:06:27;101829.03;;;16.72;42.94
75006;BME280;63553;51.814;4.600;2023-04-25T12:09:08;101830.28;;;16.07;38.92
75006;BME280;63553;51.814;4.600;2023-04-25T12:11:41;101840.50;;;16.49;40.94
75006;BME280;63553;51.814;4.600;2023-04-25T12:14:07;101829.63;;;16.48;42.91
75006;BME280;63553;51.814;4.600;2023-04-25T12:16:43;101832.53;;;16.69;43.69
75006;BME280;63553;51.814;4.600;2023-04-25T12:19:08;101835.34;;;16.60;43.42
75006;BME280;63553;51.814;4.600;2023-04-25T12:21:34;101834.25;;;17.02;43.35
75006;BME280;63553;51.814;4.600;2023-04-25T12:29:21;101840.81;;;16.86;42.87
75006;BME280;63553;51.814;4.600;2023-04-25T12:31:48;101843.31;;;16.11;42.28
75006;BME280;63553;51.814;4.600;2023-04-25T12:34:14;101847.28;;;16.10;43.94
75006;BME280;63553;51.814;4.600;2023-04-25T12:36:39;101852.38;;;16.17;44.05
75006;BME280;63553;51.814;4.600;2023-04-25T12:39:05;101843.59;;;15.64;40.95
75006;BME280;63553;51.814;4.600;2023-04-25T12:41:31;101856.66;;;16.15;43.67
75006;BME280;63553;51.814;4.600;2023-04-25T12:43:57;101848.19;;;15.60;41.36
75006;BME280;63553;51.814;4.600;2023-04-25T12:46:22;101837.25;;;16.77;43.94
75006;BME280;63553;51.814;4.600;2023-04-25T12:48:48;101853.94;;;16.73;43.43
75006;BME280;63553;51.814;4.600;2023-04-25T12:51:13;101853.31;;;16.97;43.22